Time;durP1;ratioP1;P1;durP2;ratioP2;P2;SDS_P1;SDS_P2;PMS_P1;PMS_P2;Temp;Humidity;BMP_temperature;BMP_pressure;BME280_temperature;BME280_humidity;BME280_pressure;Samples;Min_cycle;Max_cycle;Signal;HPM_P1;HPM_P2
2023/04/12 00:00:49;;;;;;;3.13;0.90;;;11.80;99.90;;;;;;5000299;28;20045;-75
2023/04/12 00:03:19;;;;;;;2.25;1.00;;;11.90;99.90;;;;;;5003258;28;20425;-75
2023/04/12 00:05:47;;;;;;;3.83;0.82;;;11.90;99.90;;;;;;5006308;28;20050;-75
2023/04/12 00:08:15;;;;;;;3.88;1.20;;;11.90;99.90;;;;;;5009493;28;20108;-78
2023/04/12 00:10:42;;;;;;;4.20;1.98;;;11.90;99.90;;;;;;5000913;28;20050;-77
2023/04/12 00:13:09;;;;;;;4.93;1.90;;;11.80;99.90;;;;;;5004578;28;20053;-76
2023/04/12 00:15:35;;;;;;;1.88;1.35;;;11.90;99.90;;;;;;5004166;28;20050;-75
2023/04/12 00:18:02;;;;;;;3.00;1.30;;;11.80;99.90;;;;;;4999297;28;20465;-75
2023/04/12 00:20:29;;;;;;;1.85;0.60;;;11.80;99.90;;;;;;5001321;28;20042;-75
2023/04/12 00:22:56;;;;;;;3.15;1.00;;;11.70;99.90;;;;;;5002800;28;20072;-75
2023/04/12 00:25:23;;;;;;;2.53;0.65;;;11.70;99.90;;;;;;4995555;28;20046;-75
2023/04/12 00:27:50;;;;;;;1.33;0.80;;;11.60;99.90;;;;;;5006342;28;20137;-75
2023/04/12 00:30:17;;;;;;;2.03;0.80;;;11.60;99.90;;;;;;5043098;23;20041;-81
2023/04/12 00:32:44;;;;;;;4.05;0.98;;;11.60;99.90;;;;;;5030687;28;20042;-80
2023/04/12 00:35:12;;;;;;;3.00;0.80;;;11.60;99.90;;;;;;5048246;28;20144;-82
2023/04/12 00:37:39;;;;;;;3.08;1.20;;;11.50;99.90;;;;;;5036666;28;20046;-84
2023/04/12 00:40:08;;;;;;;1.55;0.80;;;11.50;99.90;;;;;;5032875;28;20049;-82
2023/04/12 00:42:36;;;;;;;2.75;0.90;;;11.40;99.90;;;;;;5033049;28;20099;-82
2023/04/12 00:45:05;;;;;;;1.75;0.73;;;11.30;99.90;;;;;;5028092;28;20077;-83
2023/04/12 00:47:36;;;;;;;1.15;0.60;;;11.30;99.90;;;;;;5030945;28;20132;-82
2023/04/12 00:50:05;;;;;;;2.92;0.85;;;11.40;99.90;;;;;;5028258;28;20141;-82
2023/04/12 00:52:36;;;;;;;1.38;1.00;;;11.40;99.90;;;;;;5027415;28;20137;-82
2023/04/12 00:55:06;;;;;;;3.42;0.90;;;11.40;99.90;;;;;;5028337;28;20076;-82
2023/04/12 00:57:38;;;;;;;3.83;0.80;;;11.40;99.90;;;;;;5023481;28;20548;-83
2023/04/12 01:00:10;;;;;;;4.38;0.90;;;11.40;99.90;;;;;;5032526;28;20057;-81
2023/04/12 01:02:45;;;;;;;1.08;0.65;;;11.40;99.90;;;;;;5032326;28;20049;-80
2023/04/12 01:05:20;;;;;;;2.17;0.80;;;11.40;99.90;;;;;;5017234;28;20046;-80
2023/04/12 01:08:16;;;;;;;2.03;0.90;;;11.40;99.90;;;;;;5023901;28;20085;-83
2023/04/12 01:11:11;;;;;;;3.33;0.70;;;11.40;99.90;;;;;;5027284;28;20053;-83
2023/04/12 01:13:44;;;;;;;2.22;0.90;;;11.40;99.90;;;;;;5025299;28;20054;-82
2023/04/12 01:16:27;;;;;;;1.95;0.57;;;11.50;99.90;;;;;;5036467;28;20053;-83
2023/04/12 01:19:02;;;;;;;2.25;0.70;;;11.40;99.90;;;;;;5031571;28;20068;-80
2023/04/12 01:22:19;;;;;;;2.10;1.13;;;11.40;99.90;;;;;;5031305;28;20068;-83
2023/04/12 01:25:39;;;;;;;2.08;0.80;;;11.50;99.90;;;;;;5028323;28;20049;-84
2023/04/12 01:28:43;;;;;;;1.05;0.77;;;11.50;99.90;;;;;;4979317;28;20058;-81
2023/04/12 01:32:05;;;;;;;2.72;1.30;;;11.50;99.90;;;;;;4971658;28;20062;-80
2023/04/12 01:34:44;;;;;;;3.10;0.90;;;11.50;99.90;;;;;;4984796;28;20153;-80
2023/04/12 01:37:41;;;;;;;1.33;0.70;;;11.50;99.90;;;;;;4983777;28;20050;-82
2023/04/12 01:40:33;;;;;;;4.30;1.20;;;11.60;99.90;;;;;;4964786;28;20046;-83
2023/04/12 01:43:15;;;;;;;1.85;1.00;;;11.60;99.90;;;;;;4987544;28;20145;-83
2023/04/12 01:45:54;;;;;;;3.83;1.02;;;11.50;99.90;;;;;;4985745;28;20056;-83
2023/04/12 01:48:29;;;;;;;2.38;1.15;;;11.50;99.90;;;;;;4988463;28;20616;-83
2023/04/12 01:51:10;;;;;;;4.47;0.98;;;11.40;99.90;;;;;;4968254;28;20050;-83
2023/04/12 01:54:15;;;;;;;2.30;1.15;;;11.40;99.90;;;;;;4985550;28;20086;-83
2023/04/12 01:57:07;;;;;;;2.88;1.10;;;11.40;99.90;;;;;;4975585;28;20058;-83
2023/04/12 01:59:47;;;;;;;1.65;1.05;;;11.30;99.90;;;;;;5016707;28;20037;-82
2023/04/12 02:02:19;;;;;;;3.47;1.35;;;11.40;99.90;;;;;;5032130;28;20046;-84
2023/04/12 02:05:28;;;;;;;2.60;1.08;;;11.30;99.90;;;;;;5028142;28;20040;-81
2023/04/12 02:08:04;;;;;;;1.88;1.10;;;11.30;99.90;;;;;;5029252;28;20080;-83
2023/04/12 02:10:55;;;;;;;2.53;1.10;;;11.40;99.90;;;;;;5032689;28;20045;-81
2023/04/12 02:16:53;;;;;;;2.28;1.15;;;11.30;99.90;;;;;;5027332;28;20145;-83
2023/04/12 02:19:46;;;;;;;4.50;2.20;;;11.30;99.90;;;;;;5023311;28;20054;-83
2023/04/12 02:22:31;;;;;;;4.00;1.98;;;11.30;99.90;;;;;;5017834;28;20042;-83
2023/04/12 02:25:16;;;;;;;1.70;1.13;;;11.20;99.90;;;;;;5025309;28;20142;-82
2023/04/12 02:28:02;;;;;;;3.25;1.45;;;11.10;99.90;;;;;;5023193;28;20050;-82
2023/04/12 02:30:58;;;;;;;2.95;1.40;;;11.10;99.90;;;;;;5030234;28;20064;-83
2023/04/12 02:33:45;;;;;;;3.17;1.15;;;11.10;99.90;;;;;;5030151;28;20081;-81
2023/04/12 02:36:19;;;;;;;3.22;1.45;;;11.10;99.90;;;;;;5027813;28;20038;-80
2023/04/12 02:38:59;;;;;;;5.47;1.70;;;11.10;99.90;;;;;;5027484;28;20050;-84
2023/04/12 02:41:50;;;;;;;6.97;1.50;;;11.10;99.90;;;;;;5003350;28;20030;-83
2023/04/12 02:44:32;;;;;;;2.58;1.33;;;11.10;99.90;;;;;;5030834;28;20056;-84
2023/04/12 02:47:10;;;;;;;4.38;1.20;;;11.00;99.90;;;;;;5023923;28;20120;-82
2023/04/12 02:49:57;;;;;;;1.00;0.90;;;11.00;99.90;;;;;;5017604;28;20053;-83
2023/04/12 02:52:52;;;;;;;5.37;1.40;;;11.00;99.90;;;;;;5030161;28;20068;-82
2023/04/12 02:55:26;;;;;;;1.35;0.70;;;11.10;99.90;;;;;;5030081;28;20045;-82
2023/04/12 02:58:00;;;;;;;2.05;1.20;;;11.10;99.90;;;;;;5027684;28;20100;-82
2023/04/12 03:00:42;;;;;;;2.33;0.95;;;11.10;99.90;;;;;;5026727;28;20049;-83
2023/04/12 03:03:20;;;;;;;6.63;1.10;;;11.10;99.90;;;;;;5028378;28;20120;-82
2023/04/12 03:05:54;;;;;;;3.53;1.27;;;11.20;99.90;;;;;;5031400;28;20053;-82
2023/04/12 03:08:48;;;;;;;4.03;1.15;;;11.20;99.90;;;;;;5026778;28;20063;-83
2023/04/12 03:11:36;;;;;;;4.82;0.80;;;11.30;99.90;;;;;;5031193;28;20052;-83
2023/04/12 03:14:12;;;;;;;4.10;1.10;;;11.30;99.90;;;;;;5023849;28;20115;-83
2023/04/12 03:16:38;;;;;;;3.00;1.17;;;11.40;99.90;;;;;;5025767;28;20045;-83
2023/04/12 03:19:05;;;;;;;2.00;0.90;;;11.40;99.90;;;;;;5017605;28;20104;-81
2023/04/12 03:21:32;;;;;;;3.22;1.23;;;11.50;99.90;;;;;;5028235;28;20049;-81
2023/04/12 03:23:59;;;;;;;2.65;0.98;;;11.50;99.90;;;;;;5027749;28;20472;-83
2023/04/12 03:26:25;;;;;;;1.50;0.95;;;11.50;99.90;;;;;;5032290;28;20037;-81
2023/04/12 03:28:58;;;;;;;4.53;1.10;;;11.60;99.90;;;;;;5027302;28;20056;-83
2023/04/12 03:31:25;;;;;;;4.10;0.80;;;11.60;99.90;;;;;;5031048;28;20073;-81
2023/04/12 03:33:53;;;;;;;3.70;1.17;;;11.60;99.90;;;;;;5035492;28;20053;-83
2023/04/12 03:36:22;;;;;;;2.33;1.02;;;11.60;99.90;;;;;;5024010;28;20048;-81
2023/04/12 03:38:49;;;;;;;2.67;1.08;;;11.70;99.90;;;;;;5028509;28;20121;-83
2023/04/12 03:41:16;;;;;;;3.78;1.00;;;11.70;99.90;;;;;;5029626;28;20097;-85
2023/04/12 03:43:43;;;;;;;1.40;0.60;;;11.70;99.90;;;;;;5030253;28;20488;-81
2023/04/12 03:46:09;;;;;;;3.88;1.00;;;11.70;99.90;;;;;;5031035;28;20126;-81
2023/04/12 03:48:36;;;;;;;2.30;0.88;;;11.80;99.90;;;;;;5037126;28;20048;-84
2023/04/12 03:51:07;;;;;;;1.48;0.80;;;11.80;99.90;;;;;;5028516;28;20045;-84
2023/04/12 03:53:34;;;;;;;3.53;0.80;;;11.80;99.90;;;;;;5034631;28;20054;-83
2023/04/12 03:56:00;;;;;;;4.00;0.98;;;11.80;99.90;;;;;;5029782;28;20042;-83
2023/04/12 03:58:27;;;;;;;3.42;0.95;;;11.80;99.90;;;;;;5029201;28;20038;-82
2023/04/12 04:00:54;;;;;;;2.60;1.38;;;11.80;99.90;;;;;;5035537;28;20090;-83
2023/04/12 04:03:25;;;;;;;3.38;0.77;;;11.80;99.90;;;;;;5031733;28;20124;-83
2023/04/12 04:05:52;;;;;;;2.00;0.80;;;11.80;99.90;;;;;;5034479;28;20045;-84
2023/04/12 04:08:19;;;;;;;1.10;0.60;;;11.80;99.90;;;;;;5033667;28;20037;-83
2023/04/12 04:10:46;;;;;;;1.60;0.88;;;11.80;99.90;;;;;;5036566;28;20396;-82
2023/04/12 04:13:13;;;;;;;3.25;1.13;;;11.80;99.90;;;;;;5028402;28;20101;-81
2023/04/12 04:15:40;;;;;;;1.45;0.90;;;11.80;99.90;;;;;;5027929;28;20041;-82
2023/04/12 04:18:06;;;;;;;3.53;0.70;;;11.80;99.90;;;;;;5034333;28;20128;-83
2023/04/12 04:20:33;;;;;;;6.10;0.80;;;11.80;99.90;;;;;;5034096;28;20092;-82
2023/04/12 04:23:00;;;;;;;1.98;0.77;;;11.80;99.90;;;;;;5025535;28;20492;-84
2023/04/12 04:25:28;;;;;;;2.88;0.98;;;11.80;99.90;;;;;;5035134;28;20073;-84
2023/04/12 04:27:57;;;;;;;2.50;0.80;;;11.80;99.90;;;;;;5024661;28;20407;-82
2023/04/12 04:30:24;;;;;;;4.88;0.77;;;11.80;99.90;;;;;;5032760;28;20489;-84
2023/04/12 04:32:50;;;;;;;1.77;1.20;;;11.80;99.90;;;;;;5033608;28;20048;-81
2023/04/12 04:35:17;;;;;;;2.92;0.90;;;11.80;99.90;;;;;;5037195;28;20045;-83
2023/04/12 04:37:44;;;;;;;2.70;0.88;;;11.80;99.90;;;;;;5028141;28;20048;-83
2023/04/12 04:40:11;;;;;;;4.20;1.10;;;11.80;99.90;;;;;;5038873;28;20132;-83
2023/04/12 04:42:38;;;;;;;4.07;1.00;;;11.80;99.90;;;;;;5037302;28;20061;-84
2023/04/12 04:45:12;;;;;;;2.95;0.90;;;11.80;99.90;;;;;;5039691;28;20042;-85
2023/04/12 04:47:39;;;;;;;3.13;0.95;;;11.90;99.90;;;;;;5029209;28;20041;-84
2023/04/12 04:50:06;;;;;;;3.20;1.20;;;11.90;99.90;;;;;;5031201;28;20046;-83
2023/04/12 04:52:33;;;;;;;5.72;1.10;;;11.90;99.90;;;;;;5022064;28;20046;-84
2023/04/12 04:55:00;;;;;;;2.70;1.13;;;11.90;99.90;;;;;;5023986;28;20045;-84
2023/04/12 04:57:30;;;;;;;3.35;0.85;;;11.90;99.90;;;;;;5020597;28;20042;-84
2023/04/12 04:59:57;;;;;;;1.40;0.75;;;11.90;99.90;;;;;;5027728;28;20037;-82
2023/04/12 05:02:24;;;;;;;4.28;1.38;;;11.90;99.90;;;;;;5023330;28;20074;-84
2023/04/12 05:04:55;;;;;;;3.42;0.80;;;12.00;99.90;;;;;;5031465;28;20038;-83
2023/04/12 05:07:22;;;;;;;2.40;0.80;;;12.00;99.90;;;;;;5026870;28;20034;-85
2023/04/12 05:09:49;;;;;;;1.55;1.20;;;12.00;99.90;;;;;;5027401;28;20555;-84
2023/04/12 05:12:15;;;;;;;3.20;1.05;;;12.00;99.90;;;;;;5029672;28;20053;-84
2023/04/12 05:14:42;;;;;;;3.15;1.30;;;12.00;99.90;;;;;;5025150;28;20125;-84
2023/04/12 05:17:17;;;;;;;2.78;1.17;;;12.00;99.90;;;;;;5028509;28;20052;-83
2023/04/12 05:19:44;;;;;;;2.83;1.40;;;12.10;99.90;;;;;;5022210;28;20100;-82
2023/04/12 05:22:11;;;;;;;3.58;1.20;;;12.10;99.90;;;;;;5029740;28;20042;-84
2023/04/12 05:24:38;;;;;;;1.95;0.80;;;12.10;99.90;;;;;;5031324;28;20451;-84
2023/04/12 05:27:05;;;;;;;4.20;1.10;;;12.10;99.90;;;;;;5027704;28;20465;-82
2023/04/12 05:29:32;;;;;;;3.15;1.50;;;12.10;99.90;;;;;;5027421;28;20044;-84
2023/04/12 05:31:58;;;;;;;1.75;0.95;;;12.10;99.90;;;;;;5023704;28;20041;-84
2023/04/12 05:34:25;;;;;;;2.47;0.90;;;12.10;99.90;;;;;;5030320;28;20077;-83
2023/04/12 05:36:52;;;;;;;3.95;1.45;;;12.10;99.90;;;;;;5034989;28;20092;-84
2023/04/12 05:39:18;;;;;;;3.67;1.15;;;12.10;99.90;;;;;;5031112;28;20061;-84
2023/04/12 05:41:46;;;;;;;5.80;1.17;;;12.20;99.90;;;;;;5032781;28;20128;-84
2023/04/12 05:44:13;;;;;;;4.50;2.05;;;12.20;99.90;;;;;;5031600;28;20106;-84
2023/04/12 05:46:39;;;;;;;3.28;1.70;;;12.20;99.90;;;;;;5034673;28;20116;-84
2023/04/12 05:49:07;;;;;;;3.63;1.00;;;12.20;99.90;;;;;;5030539;28;20045;-82
2023/04/12 05:51:34;;;;;;;3.85;1.00;;;12.20;99.90;;;;;;5033800;28;20041;-84
2023/04/12 05:54:07;;;;;;;7.82;1.30;;;12.30;99.90;;;;;;5027725;28;20069;-84
2023/04/12 05:56:34;;;;;;;5.50;1.00;;;12.30;99.90;;;;;;5026143;28;20053;-84
2023/04/12 05:59:01;;;;;;;4.10;1.13;;;12.30;99.90;;;;;;5032701;28;20061;-86
2023/04/12 06:01:33;;;;;;;4.40;1.02;;;12.30;99.90;;;;;;5032495;28;20075;-84
2023/04/12 06:04:01;;;;;;;2.42;0.95;;;12.30;99.90;;;;;;5035009;28;20096;-84
2023/04/12 06:06:29;;;;;;;4.32;1.00;;;12.40;99.90;;;;;;5026109;28;20045;-86
2023/04/12 06:08:59;;;;;;;3.83;1.63;;;12.40;99.90;;;;;;5027156;28;20122;-84
2023/04/12 06:11:26;;;;;;;3.58;1.02;;;12.40;99.90;;;;;;5026284;28;20044;-85
2023/04/12 06:13:53;;;;;;;6.10;1.38;;;12.40;99.90;;;;;;5028200;28;20099;-85
2023/04/12 06:16:20;;;;;;;4.65;1.25;;;12.50;99.90;;;;;;5030320;28;20453;-85
2023/04/12 06:18:46;;;;;;;3.88;0.98;;;12.50;99.90;;;;;;5028406;28;20077;-85
2023/04/12 06:21:13;;;;;;;5.00;1.27;;;12.50;99.90;;;;;;5026744;28;20477;-85
2023/04/12 06:23:40;;;;;;;4.15;1.10;;;12.60;99.90;;;;;;5024065;28;20046;-83
2023/04/12 06:26:07;;;;;;;2.00;1.10;;;12.60;99.90;;;;;;5019725;28;20041;-85
2023/04/12 06:28:33;;;;;;;2.35;0.93;;;12.60;99.90;;;;;;5028613;28;20476;-85
2023/04/12 06:31:00;;;;;;;3.83;0.90;;;12.70;99.90;;;;;;5028171;28;20081;-84
2023/04/12 06:33:27;;;;;;;4.30;1.10;;;12.80;99.90;;;;;;5029270;28;20490;-85
2023/04/12 06:35:54;;;;;;;4.95;0.85;;;12.80;99.90;;;;;;5016508;28;20037;-83
2023/04/12 06:38:20;;;;;;;3.30;1.10;;;12.90;99.90;;;;;;5027149;28;20503;-85
2023/04/12 06:40:47;;;;;;;3.25;0.80;;;12.90;99.90;;;;;;5023621;28;20044;-85
2023/04/12 06:43:18;;;;;;;5.75;0.77;;;13.00;99.90;;;;;;5048581;23;20045;-76
2023/04/12 06:45:45;;;;;;;;;;;13.10;99.90;;;;;;5025419;28;20132;-76
2023/04/12 06:48:12;;;;;;;2.38;0.70;;;13.10;99.90;;;;;;5027905;28;20015;-74
2023/04/12 06:50:39;;;;;;;3.83;0.70;;;13.20;99.90;;;;;;5025209;28;20519;-76
2023/04/12 06:53:06;;;;;;;2.45;1.17;;;13.20;99.90;;;;;;5002259;28;20061;-77
2023/04/12 06:55:33;;;;;;;5.07;0.85;;;13.20;99.90;;;;;;5007372;28;20050;-77
2023/04/12 06:57:59;;;;;;;3.80;1.00;;;13.30;99.90;;;;;;5006090;28;20115;-76
2023/04/12 07:00:26;;;;;;;3.78;1.40;;;13.30;99.90;;;;;;5007160;28;20069;-76
2023/04/12 07:02:53;;;;;;;3.08;0.93;;;13.40;99.90;;;;;;5011702;28;20101;-77
2023/04/12 07:05:20;;;;;;;2.15;0.93;;;13.40;99.90;;;;;;5012782;28;20497;-77
2023/04/12 07:07:47;;;;;;;3.03;0.90;;;13.50;99.90;;;;;;5007781;28;20109;-76
2023/04/12 07:10:14;;;;;;;2.72;0.90;;;13.50;99.90;;;;;;5012635;28;20077;-77
2023/04/12 07:12:41;;;;;;;3.50;1.17;;;13.60;99.90;;;;;;5005948;28;20495;-76
2023/04/12 07:15:08;;;;;;;3.45;1.05;;;13.60;99.90;;;;;;5000504;28;20073;-76
2023/04/12 07:17:35;;;;;;;2.38;0.98;;;13.60;99.90;;;;;;5011480;28;20085;-78
2023/04/12 07:20:02;;;;;;;4.53;1.23;;;13.70;99.90;;;;;;5003538;28;20042;-76
2023/04/12 07:22:29;;;;;;;3.80;1.00;;;13.70;99.90;;;;;;4996502;28;20074;-76
2023/04/12 07:24:56;;;;;;;3.22;1.20;;;13.70;99.90;;;;;;5012779;28;20053;-76
2023/04/12 07:27:23;;;;;;;1.98;0.90;;;13.70;99.90;;;;;;5010600;28;20545;-76
2023/04/12 07:29:53;;;;;;;1.45;0.80;;;13.70;99.90;;;;;;5011764;28;20156;-76
2023/04/12 07:32:20;;;;;;;3.60;1.35;;;13.70;99.90;;;;;;5005660;28;20054;-75
2023/04/12 07:34:47;;;;;;;2.25;1.20;;;13.70;99.90;;;;;;5011939;28;20552;-76
2023/04/12 07:37:13;;;;;;;4.05;1.08;;;13.80;99.90;;;;;;5010945;28;20097;-76
2023/04/12 07:39:40;;;;;;;1.95;0.95;;;13.80;99.90;;;;;;5011148;28;20038;-77
2023/04/12 07:42:07;;;;;;;2.50;1.17;;;13.80;99.90;;;;;;5010386;28;20145;-76
2023/04/12 07:44:34;;;;;;;3.35;1.25;;;13.80;99.90;;;;;;4994285;28;20150;-75
2023/04/12 07:47:04;;;;;;;;;;;13.90;99.90;;;;;;5012271;28;20069;-77
2023/04/12 07:49:31;;;;;;;3.58;0.70;;;13.90;99.90;;;;;;5012203;28;19976;-75
2023/04/12 07:51:59;;;;;;;2.45;1.10;;;14.00;99.90;;;;;;5012357;28;20053;-76
2023/04/12 07:54:27;;;;;;;2.72;1.13;;;14.00;99.90;;;;;;5012605;28;20050;-76
2023/04/12 07:57:04;;;;;;;4.50;1.17;;;14.00;99.90;;;;;;5006859;28;20081;-76
2023/04/12 07:59:31;;;;;;;2.58;0.98;;;14.00;99.90;;;;;;5005149;28;20053;-76
2023/04/12 08:01:57;;;;;;;2.30;1.10;;;14.00;99.90;;;;;;5010422;28;20042;-75
2023/04/12 08:04:27;;;;;;;3.17;1.02;;;14.00;99.90;;;;;;5014806;28;20060;-76
2023/04/12 08:06:54;;;;;;;4.60;1.02;;;14.00;99.90;;;;;;5012904;28;20074;-76
2023/04/12 08:09:21;;;;;;;4.68;1.25;;;14.10;99.90;;;;;;5024492;28;20073;-76
2023/04/12 08:11:48;;;;;;;2.58;0.80;;;14.10;99.90;;;;;;5015458;28;20046;-76
2023/04/12 08:14:15;;;;;;;1.98;0.90;;;14.20;99.90;;;;;;4997263;28;20498;-76
2023/04/12 08:16:42;;;;;;;4.32;1.45;;;14.20;99.90;;;;;;5002309;28;20128;-76
2023/04/12 08:19:08;;;;;;;6.28;1.15;;;14.20;99.90;;;;;;5011683;28;20460;-76
2023/04/12 08:21:35;;;;;;;2.05;1.10;;;14.30;99.90;;;;;;5011306;28;20049;-76
2023/04/12 08:24:02;;;;;;;2.20;1.00;;;14.30;99.90;;;;;;5000774;28;20092;-77
2023/04/12 08:26:29;;;;;;;4.60;1.13;;;14.30;99.90;;;;;;5004883;28;20090;-75
2023/04/12 08:28:57;;;;;;;4.95;1.38;;;14.20;99.90;;;;;;5001129;28;20485;-75
2023/04/12 08:31:24;;;;;;;8.02;1.55;;;14.20;99.90;;;;;;5015976;28;20046;-76
2023/04/12 08:33:50;;;;;;;3.17;1.17;;;14.00;99.90;;;;;;5019480;28;20108;-76
2023/04/12 08:36:17;;;;;;;3.28;1.10;;;13.80;99.90;;;;;;5008786;28;20194;-76
2023/04/12 08:38:44;;;;;;;6.53;1.77;;;13.70;99.90;;;;;;5011081;28;20454;-76
2023/04/12 08:41:12;;;;;;;3.03;1.60;;;13.60;99.90;;;;;;5007055;28;20054;-76
2023/04/12 08:43:44;;;;;;;4.75;1.80;;;13.40;99.90;;;;;;5003396;28;20045;-76
2023/04/12 08:46:14;;;;;;;4.90;1.90;;;13.40;99.90;;;;;;5005803;28;20049;-76
2023/04/12 08:48:47;;;;;;;3.28;1.48;;;13.40;99.90;;;;;;5009705;28;20149;-76
2023/04/12 08:51:17;;;;;;;3.90;1.55;;;13.40;99.90;;;;;;5017558;28;20088;-76
2023/04/12 08:53:44;;;;;;;5.60;2.03;;;13.30;99.90;;;;;;5009023;28;20460;-76
2023/04/12 08:56:15;;;;;;;4.80;1.35;;;13.30;99.90;;;;;;5015929;28;20062;-76
2023/04/12 08:58:47;;;;;;;4.18;1.60;;;13.30;99.90;;;;;;5012829;28;20046;-76
2023/04/12 09:01:15;;;;;;;3.85;1.42;;;13.30;99.90;;;;;;5008821;28;20062;-76
2023/04/12 09:03:44;;;;;;;4.93;1.40;;;13.30;99.90;;;;;;5010523;28;20131;-77
2023/04/12 09:06:12;;;;;;;4.30;1.83;;;13.30;99.90;;;;;;5006872;28;20422;-76
2023/04/12 09:08:55;;;;;;;2.60;1.38;;;13.30;99.90;;;;;;5010112;28;20046;-77
2023/04/12 09:11:27;;;;;;;4.80;1.50;;;13.30;99.90;;;;;;5004214;28;20099;-76
2023/04/12 09:13:55;;;;;;;4.72;1.73;;;13.30;99.90;;;;;;5011740;28;20417;-77
2023/04/12 09:16:39;;;;;;;3.72;1.60;;;13.30;99.90;;;;;;5004502;28;20058;-77
2023/04/12 09:19:07;;;;;;;7.38;1.80;;;13.30;99.90;;;;;;5006002;28;20486;-76
2023/04/12 09:21:35;;;;;;;6.95;1.50;;;13.30;99.90;;;;;;5005043;28;20183;-76
2023/04/12 09:24:08;;;;;;;4.18;1.42;;;13.30;99.90;;;;;;5002612;28;20142;-76
2023/04/12 09:26:39;;;;;;;7.10;2.10;;;13.20;99.90;;;;;;5006446;28;20045;-76
2023/04/12 09:29:25;;;;;;;5.07;1.60;;;13.20;99.90;;;;;;5008672;28;20429;-77
2023/04/12 09:31:56;;;;;;;5.88;1.60;;;13.20;99.90;;;;;;5000803;28;20057;-76
2023/04/12 09:34:23;;;;;;;4.90;1.60;;;13.10;99.90;;;;;;5003479;28;20167;-76
2023/04/12 09:36:53;;;;;;;4.75;1.63;;;13.10;99.90;;;;;;5010521;28;20046;-77
2023/04/12 09:39:29;;;;;;;3.53;1.38;;;13.10;99.90;;;;;;5007558;28;20101;-77
2023/04/12 09:42:10;;;;;;;4.45;1.50;;;13.00;99.90;;;;;;5005355;28;20552;-77
2023/04/12 09:44:57;;;;;;;4.85;1.65;;;13.00;99.90;;;;;;5007180;28;20053;-76
2023/04/12 09:47:40;;;;;;;4.70;1.58;;;13.00;99.90;;;;;;5004799;28;20137;-77
2023/04/12 09:50:08;;;;;;;6.18;1.70;;;13.00;99.90;;;;;;5005486;28;20054;-76
2023/04/12 09:52:37;;;;;;;9.98;2.22;;;13.00;99.90;;;;;;5010063;28;20502;-77
2023/04/12 09:55:10;;;;;;;5.15;1.85;;;13.00;99.90;;;;;;5002959;28;20055;-76
2023/04/12 09:57:41;;;;;;;6.32;1.80;;;13.00;99.90;;;;;;5006962;28;20061;-76
2023/04/12 10:00:21;;;;;;;7.75;1.95;;;13.00;99.90;;;;;;5000916;28;20553;-76
2023/04/12 10:02:50;;;;;;;4.47;1.30;;;13.10;99.90;;;;;;5008890;28;20462;-75
2023/04/12 10:05:19;;;;;;;6.35;1.45;;;13.10;99.90;;;;;;5002461;28;20310;-77
2023/04/12 10:07:47;;;;;;;4.60;1.30;;;13.20;99.90;;;;;;5003654;28;20050;-76
2023/04/12 10:10:16;;;;;;;5.22;1.60;;;13.20;99.90;;;;;;5004415;28;20046;-76
2023/04/12 10:12:45;;;;;;;4.18;1.50;;;13.30;99.90;;;;;;5011250;28;20057;-76
2023/04/12 10:15:15;;;;;;;6.60;3.03;;;13.30;99.90;;;;;;5003343;28;20080;-76
2023/04/12 10:17:46;;;;;;;4.97;1.92;;;13.40;99.90;;;;;;5004654;28;20045;-76
2023/04/12 10:20:14;;;;;;;3.30;1.40;;;13.40;99.90;;;;;;5005689;28;20733;-76
2023/04/12 10:22:47;;;;;;;4.35;1.48;;;13.40;99.90;;;;;;5003352;28;20100;-76
2023/04/12 10:25:16;;;;;;;2.75;1.50;;;13.40;99.90;;;;;;5007526;28;20050;-76
2023/04/12 10:27:44;;;;;;;4.43;1.55;;;13.50;99.90;;;;;;5007586;28;20042;-76
2023/04/12 10:30:31;;;;;;;5.25;1.85;;;13.50;99.90;;;;;;5000097;28;20463;-76
2023/04/12 10:33:03;;;;;;;3.97;1.50;;;13.50;99.90;;;;;;5003389;28;20054;-76
2023/04/12 10:36:02;;;;;;;5.65;1.58;;;13.50;99.90;;;;;;5011776;28;20058;-76
2023/04/12 10:38:36;;;;;;;2.53;1.45;;;13.50;99.90;;;;;;5006321;28;20473;-77
2023/04/12 10:41:17;;;;;;;3.33;1.70;;;13.60;99.90;;;;;;5013271;28;20050;-76
2023/04/12 10:43:48;;;;;;;2.70;1.15;;;13.70;99.90;;;;;;5013612;28;20054;-77
2023/04/12 10:46:36;;;;;;;3.63;1.45;;;13.80;99.90;;;;;;4999093;28;20046;-77
2023/04/12 10:49:16;;;;;;;3.78;1.45;;;13.80;99.90;;;;;;5002622;28;20141;-76
2023/04/12 10:52:12;;;;;;;5.00;1.20;;;13.90;99.90;;;;;;5010730;28;20050;-76
2023/04/12 10:54:39;;;;;;;3.15;1.58;;;14.00;99.90;;;;;;5012817;28;20058;-75
2023/04/12 10:57:06;;;;;;;3.67;1.25;;;14.00;99.90;;;;;;5008655;28;20074;-76
2023/04/12 10:59:58;;;;;;;4.75;1.35;;;14.00;99.90;;;;;;5012951;28;20061;-76
2023/04/12 11:02:25;;;;;;;5.50;1.20;;;14.10;99.90;;;;;;5016693;28;20046;-76
2023/04/12 11:05:07;;;;;;;7.97;1.83;;;14.20;99.90;;;;;;5011840;28;20065;-77
2023/04/12 11:07:43;;;;;;;10.93;1.95;;;14.30;99.90;;;;;;5003066;28;20148;-76
2023/04/12 11:10:15;;;;;;;3.55;1.13;;;14.40;99.90;;;;;;5000669;28;20054;-76
2023/04/12 11:12:49;;;;;;;2.50;1.17;;;14.50;99.90;;;;;;5005027;28;20482;-76
2023/04/12 11:15:16;;;;;;;6.15;1.40;;;14.60;99.90;;;;;;5010293;28;20050;-76
2023/04/12 11:17:53;;;;;;;5.03;1.35;;;14.80;99.90;;;;;;4999208;28;20141;-76
2023/04/12 11:20:20;;;;;;;3.75;1.05;;;14.90;99.90;;;;;;5011363;28;20053;-76
2023/04/12 11:22:48;;;;;;;2.85;1.13;;;15.00;99.90;;;;;;5011453;28;20108;-76
2023/04/12 11:25:16;;;;;;;2.90;1.00;;;15.10;99.90;;;;;;5014231;28;20046;-77
2023/04/12 11:27:50;;;;;;;3.90;1.10;;;15.20;99.90;;;;;;5004299;28;20057;-76
2023/04/12 11:30:18;;;;;;;2.28;1.10;;;15.20;99.90;;;;;;5010254;28;20050;-76
2023/04/12 11:32:46;;;;;;;3.00;1.00;;;15.30;99.90;;;;;;4993478;28;20041;-76
2023/04/12 11:35:19;;;;;;;4.43;1.55;;;15.30;99.90;;;;;;5005113;28;20450;-74
2023/04/12 11:37:46;;;;;;;3.05;1.00;;;15.40;99.90;;;;;;5006970;28;20042;-77
2023/04/12 11:40:13;;;;;;;2.28;1.10;;;15.50;99.90;;;;;;5011980;28;20061;-77
2023/04/12 11:42:40;;;;;;;3.03;0.73;;;15.60;99.90;;;;;;5005502;28;20042;-76
2023/04/12 11:45:10;;;;;;;2.65;0.95;;;15.50;99.90;;;;;;5002724;28;20073;-76
2023/04/12 11:47:44;;;;;;;4.80;1.23;;;15.60;99.90;;;;;;4999630;28;20065;-76
2023/04/12 11:50:11;;;;;;;2.42;0.80;;;15.60;99.90;;;;;;5001687;28;20042;-77
2023/04/12 11:52:39;;;;;;;3.50;0.68;;;15.60;99.90;;;;;;4998648;28;20549;-76
2023/04/12 11:55:09;;;;;;;2.08;1.00;;;15.70;99.90;;;;;;4998244;28;20103;-77
2023/04/12 11:57:37;;;;;;;2.05;0.82;;;15.80;99.90;;;;;;5007243;28;20046;-76
2023/04/12 12:00:05;;;;;;;2.28;0.75;;;15.90;99.90;;;;;;5006635;28;20065;-76
2023/04/12 12:02:34;;;;;;;1.92;0.65;;;15.90;99.90;;;;;;5007289;28;20058;-76
2023/04/12 12:05:12;;;;;;;2.30;0.77;;;16.00;99.90;;;;;;5007225;28;20046;-77
2023/04/12 12:07:39;;;;;;;2.05;0.80;;;16.00;99.90;;;;;;5009389;28;20069;-76
2023/04/12 12:10:06;;;;;;;1.33;0.80;;;16.00;99.90;;;;;;5001812;28;20469;-77
2023/04/12 12:12:33;;;;;;;1.08;0.73;;;16.10;99.90;;;;;;5006629;28;20449;-76
2023/04/12 12:15:01;;;;;;;5.07;0.80;;;16.10;99.90;;;;;;5009458;28;20081;-76
2023/04/12 12:17:28;;;;;;;1.92;0.80;;;16.10;99.90;;;;;;5003154;28;20045;-78
2023/04/12 12:19:58;;;;;;;3.72;0.80;;;16.20;99.90;;;;;;5003921;28;20452;-77
2023/04/12 12:22:25;;;;;;;1.85;1.00;;;16.20;99.90;;;;;;5001524;28;20039;-76
2023/04/12 12:24:55;;;;;;;2.53;0.70;;;16.20;99.90;;;;;;5002702;28;20046;-76
2023/04/12 12:27:23;;;;;;;;;;;16.20;99.90;;;;;;5000871;28;20141;-76
2023/04/12 12:29:53;;;;;;;1.10;0.50;;;16.20;99.90;;;;;;5005713;28;19922;-76
2023/04/12 12:32:22;;;;;;;2.10;0.63;;;16.20;99.90;;;;;;5009556;28;20569;-77
2023/04/12 12:34:55;;;;;;;1.35;0.55;;;16.20;99.90;;;;;;5013011;28;20111;-77
2023/04/12 12:37:24;;;;;;;2.35;0.63;;;16.30;99.90;;;;;;5013484;28;20426;-77
2023/04/12 12:40:15;;;;;;;1.48;0.70;;;16.30;99.90;;;;;;5000199;28;20058;-76
2023/04/12 12:42:47;;;;;;;0.88;0.55;;;16.40;99.90;;;;;;5002597;28;20052;-77
2023/04/12 12:45:15;;;;;;;1.95;0.90;;;16.50;99.90;;;;;;5009141;28;20045;-76
2023/04/12 12:47:52;;;;;;;2.90;0.60;;;16.50;99.90;;;;;;5005994;28;20099;-76
2023/04/12 12:50:22;;;;;;;1.95;0.50;;;16.60;99.90;;;;;;5005396;28;20138;-75
2023/04/12 12:55:43;;;;;;;1.73;0.80;;;16.80;99.90;;;;;;4957683;29;20062;-81
2023/04/12 12:58:24;;;;;;;2.13;0.60;;;16.80;99.90;;;;;;4946845;29;20090;-82
2023/04/12 13:00:54;;;;;;;3.03;0.95;;;16.80;99.90;;;;;;4952302;28;20055;-82
2023/04/12 13:03:24;;;;;;;1.13;0.60;;;16.80;99.90;;;;;;4956100;28;20078;-82
2023/04/12 13:05:56;;;;;;;1.27;0.50;;;16.70;99.90;;;;;;4969480;28;20063;-81
2023/04/12 13:08:26;;;;;;;2.60;0.68;;;16.60;99.90;;;;;;4971234;28;20070;-81
2023/04/12 13:10:55;;;;;;;1.03;0.53;;;16.50;99.90;;;;;;4971231;28;20103;-82
2023/04/12 13:13:29;;;;;;;1.50;0.70;;;16.40;99.90;;;;;;4977861;28;20053;-82
2023/04/12 13:16:05;;;;;;;1.25;0.63;;;16.30;99.90;;;;;;4978476;28;20133;-81
2023/04/12 13:18:52;;;;;;;2.17;0.50;;;16.20;99.90;;;;;;4972584;28;20078;-81